createdAt,value
2018-07-30T00:01:31.094Z,22.07
2018-07-30T00:03:59.786Z,22.05
2018-07-30T00:06:28.280Z,22.05
2018-07-30T00:08:56.790Z,22.02
2018-07-30T00:11:25.357Z,21.95
2018-07-30T00:13:53.863Z,21.96
2018-07-30T00:16:22.474Z,21.92
2018-07-30T00:18:50.975Z,21.88
2018-07-30T00:21:19.817Z,21.81
2018-07-30T00:23:48.381Z,21.72
2018-07-30T00:26:16.865Z,21.64
2018-07-30T00:28:45.443Z,21.58
2018-07-30T00:31:13.962Z,21.54
2018-07-30T00:33:42.557Z,21.46
2018-07-30T00:36:11.077Z,21.39
2018-07-30T00:38:39.561Z,21.35
2018-07-30T00:41:08.230Z,21.28
2018-07-30T00:43:36.869Z,21.27
2018-07-30T00:46:05.582Z,21.18
2018-07-30T00:48:34.086Z,21.12
2018-07-30T00:51:02.639Z,21.12
2018-07-30T00:53:31.846Z,21.12
2018-07-30T00:56:00.479Z,21.16
2018-07-30T00:58:28.940Z,21.23
2018-07-30T01:00:57.555Z,21.27
2018-07-30T01:03:26.020Z,21.27
2018-07-30T01:05:54.662Z,21.24
2018-07-30T01:08:23.224Z,21.27
2018-07-30T01:10:51.795Z,21.24
2018-07-30T01:13:20.396Z,21.26
2018-07-30T01:15:48.932Z,21.21
2018-07-30T01:18:18.219Z,21.13
2018-07-30T01:20:46.730Z,21.06
2018-07-30T01:23:15.379Z,21.00
2018-07-30T01:25:44.107Z,20.98
2018-07-30T01:28:12.673Z,20.97
2018-07-30T01:30:41.193Z,20.92
2018-07-30T01:33:09.711Z,20.84
2018-07-30T01:35:38.429Z,20.79
2018-07-30T01:38:07.322Z,20.73
2018-07-30T01:40:35.806Z,20.64
2018-07-30T01:43:04.259Z,20.56
2018-07-30T01:45:32.749Z,20.54
2018-07-30T01:48:01.355Z,20.49
2018-07-30T01:50:29.876Z,20.45
2018-07-30T01:52:58.453Z,20.43
2018-07-30T02:02:44.372Z,20.35
2018-07-30T02:05:12.974Z,20.31
2018-07-30T02:07:42.433Z,20.29
2018-07-30T02:10:12.250Z,20.26
2018-07-30T02:12:41.198Z,20.21
2018-07-30T02:15:09.978Z,20.18
2018-07-30T02:17:38.521Z,20.14
2018-07-30T02:20:07.161Z,20.09
2018-07-30T02:22:35.727Z,20.01
2018-07-30T02:25:04.769Z,19.97
2018-07-30T02:27:33.360Z,19.91
2018-07-30T02:30:01.968Z,19.93
2018-07-30T02:32:30.486Z,19.89
2018-07-30T02:34:59.198Z,19.86
2018-07-30T02:37:28.013Z,19.83
2018-07-30T02:39:56.738Z,19.77
2018-07-30T02:42:25.346Z,19.71
2018-07-30T02:44:53.842Z,19.73
2018-07-30T02:47:22.386Z,19.80
2018-07-30T02:49:50.946Z,19.84
2018-07-30T02:52:19.424Z,19.86
2018-07-30T02:54:48.042Z,19.87
2018-07-30T02:57:16.733Z,19.89
2018-07-30T02:59:45.274Z,19.88
2018-07-30T03:02:13.892Z,19.86
2018-07-30T03:04:42.805Z,19.79
2018-07-30T03:07:11.408Z,19.72
2018-07-30T03:09:39.921Z,19.67
2018-07-30T03:12:08.454Z,19.69
2018-07-30T03:14:37.288Z,19.67
2018-07-30T03:17:05.875Z,19.59
2018-07-30T03:19:34.338Z,19.53
2018-07-30T03:22:02.822Z,19.51
2018-07-30T03:24:31.486Z,19.44
2018-07-30T03:27:00.337Z,19.39
2018-07-30T03:29:29.054Z,19.42
2018-07-30T03:31:57.788Z,19.45
2018-07-30T03:34:26.289Z,19.39
2018-07-30T03:36:54.842Z,19.28
2018-07-30T03:39:23.435Z,19.22
2018-07-30T03:41:51.995Z,19.22
2018-07-30T03:44:20.740Z,19.26
2018-07-30T03:46:49.277Z,19.27
2018-07-30T03:49:17.786Z,19.20
2018-07-30T03:51:46.349Z,19.19
2018-07-30T03:54:14.827Z,19.17
2018-07-30T03:56:43.331Z,19.04
2018-07-30T03:59:11.886Z,19.06
2018-07-30T04:01:40.431Z,18.97
2018-07-30T04:04:08.997Z,18.91
2018-07-30T04:06:37.516Z,18.84
2018-07-30T04:09:09.357Z,18.82
2018-07-30T04:11:38.129Z,18.84
2018-07-30T04:14:06.834Z,18.81
2018-07-30T04:16:50.948Z,18.83
2018-07-30T04:19:20.478Z,18.88
2018-07-30T04:21:49.047Z,18.93
2018-07-30T04:24:17.782Z,19.03
2018-07-30T04:26:47.130Z,18.99
2018-07-30T04:29:16.525Z,19.00
2018-07-30T04:31:45.204Z,19.02
2018-07-30T04:34:13.730Z,19.08
2018-07-30T04:36:42.368Z,19.15
2018-07-30T04:39:13.695Z,19.18
2018-07-30T04:41:42.454Z,19.21
2018-07-30T04:44:10.989Z,19.24
2018-07-30T04:46:39.544Z,19.25
2018-07-30T04:49:08.230Z,19.31
2018-07-30T04:51:37.294Z,19.33
2018-07-30T04:54:06.298Z,19.41
2018-07-30T04:56:34.999Z,19.46
2018-07-30T04:59:03.554Z,19.50
2018-07-30T05:01:32.633Z,19.56
2018-07-30T05:04:01.203Z,19.59
2018-07-30T05:06:29.659Z,19.67
2018-07-30T05:08:58.357Z,19.75
2018-07-30T05:11:26.865Z,19.82
2018-07-30T05:13:55.925Z,19.92
2018-07-30T05:16:24.427Z,20.07
2018-07-30T05:18:52.866Z,20.11
2018-07-30T05:21:21.426Z,20.21
2018-07-30T05:23:50.078Z,20.28
2018-07-30T05:26:18.589Z,20.35
2018-07-30T05:28:47.126Z,20.44
2018-07-30T05:31:15.618Z,20.52
2018-07-30T05:33:44.211Z,20.59
2018-07-30T05:36:12.814Z,20.61
2018-07-30T05:38:41.342Z,20.68
2018-07-30T05:41:10.372Z,20.76
2018-07-30T05:43:39.036Z,20.82
2018-07-30T05:46:07.510Z,20.91
2018-07-30T05:48:35.970Z,20.98
2018-07-30T05:51:04.506Z,21.04
2018-07-30T05:53:32.933Z,21.10
2018-07-30T05:56:01.455Z,21.14
2018-07-30T05:58:30.071Z,21.20
2018-07-30T06:00:58.874Z,21.24
2018-07-30T06:03:27.419Z,21.30
2018-07-30T06:05:56.005Z,21.41
2018-07-30T06:08:24.498Z,21.55
2018-07-30T06:10:53.097Z,21.66
2018-07-30T06:13:21.746Z,21.76
2018-07-30T06:15:50.337Z,21.85
2018-07-30T06:18:19.025Z,21.93
2018-07-30T06:20:47.509Z,22.05
2018-07-30T06:23:15.981Z,22.17
2018-07-30T06:25:44.879Z,22.29
2018-07-30T06:28:13.430Z,22.45
2018-07-30T06:30:41.957Z,22.57
2018-07-30T06:33:10.530Z,22.66
2018-07-30T06:35:38.991Z,22.76
2018-07-30T06:38:07.640Z,22.88
2018-07-30T06:40:36.385Z,22.99
2018-07-30T06:43:04.863Z,23.13
2018-07-30T06:45:33.310Z,23.20
2018-07-30T06:48:02.044Z,23.33
2018-07-30T06:50:30.849Z,23.46
2018-07-30T06:52:59.749Z,23.57
2018-07-30T06:55:28.246Z,23.73
2018-07-30T06:57:56.826Z,23.86
2018-07-30T07:00:25.356Z,23.98
2018-07-30T07:02:53.951Z,24.10
2018-07-30T07:05:22.514Z,24.12
2018-07-30T07:07:50.998Z,24.27
2018-07-30T07:10:19.491Z,24.44
2018-07-30T07:12:48.292Z,24.58
2018-07-30T07:15:16.811Z,24.71
2018-07-30T07:17:45.442Z,24.78
2018-07-30T07:20:14.098Z,24.92
2018-07-30T07:22:42.676Z,25.03
2018-07-30T07:25:11.494Z,25.11
2018-07-30T07:27:40.014Z,25.24
2018-07-30T07:30:09.246Z,25.37
2018-07-30T07:32:37.805Z,25.49
2018-07-30T07:35:06.731Z,25.57
2018-07-30T07:37:35.474Z,25.67
2018-07-30T07:40:04.355Z,25.84
2018-07-30T07:42:32.938Z,25.94
2018-07-30T07:45:01.936Z,26.00
2018-07-30T07:47:30.467Z,26.09
2018-07-30T07:49:59.379Z,26.26
2018-07-30T07:52:27.990Z,26.32
2018-07-30T07:54:56.505Z,26.41
2018-07-30T07:57:25.532Z,26.56
2018-07-30T07:59:54.088Z,26.63
2018-07-30T08:02:22.770Z,26.71
2018-07-30T08:04:51.407Z,26.86
2018-07-30T08:07:19.909Z,27.03
2018-07-30T08:09:48.517Z,27.15
2018-07-30T08:12:16.995Z,27.27
2018-07-30T08:14:45.608Z,27.42
2018-07-30T08:17:14.282Z,27.45
2018-07-30T08:19:42.741Z,27.61
2018-07-30T08:22:11.368Z,27.70
2018-07-30T08:24:39.807Z,27.77
2018-07-30T08:27:08.391Z,27.98
2018-07-30T08:29:36.881Z,28.07
2018-07-30T08:32:05.317Z,28.25
2018-07-30T08:34:33.903Z,28.38
2018-07-30T08:37:02.531Z,28.46
2018-07-30T08:39:31.003Z,28.02
2018-07-30T08:41:59.689Z,27.95
2018-07-30T08:44:28.253Z,28.02
2018-07-30T08:46:57.067Z,28.10
2018-07-30T08:49:25.685Z,28.42
2018-07-30T08:51:54.237Z,28.65
2018-07-30T08:54:22.749Z,28.91
2018-07-30T08:56:51.294Z,29.27
2018-07-30T08:59:19.822Z,29.49
2018-07-30T09:01:48.393Z,29.50
2018-07-30T09:04:17.052Z,29.68
2018-07-30T09:06:45.507Z,29.81
2018-07-30T09:09:14.014Z,29.90
2018-07-30T09:11:42.769Z,30.18
2018-07-30T09:14:11.407Z,30.40
2018-07-30T09:16:39.966Z,30.59
2018-07-30T09:19:08.467Z,30.81
2018-07-30T09:21:37.119Z,30.98
2018-07-30T09:24:05.928Z,30.95
2018-07-30T09:26:34.493Z,31.22
2018-07-30T09:29:03.034Z,31.54
2018-07-30T09:31:31.630Z,31.68
2018-07-30T09:34:00.353Z,31.78
2018-07-30T09:36:28.842Z,31.89
2018-07-30T09:38:57.314Z,32.07
2018-07-30T09:41:25.801Z,32.13
2018-07-30T09:43:54.306Z,32.34
2018-07-30T09:46:22.968Z,32.69
2018-07-30T09:48:51.453Z,33.17
2018-07-30T09:51:20.262Z,33.79
2018-07-30T09:53:48.798Z,34.58
2018-07-30T09:56:17.349Z,34.72
2018-07-30T09:58:45.824Z,34.95
2018-07-30T10:01:20.446Z,35.26
2018-07-30T10:03:49.296Z,34.96
2018-07-30T10:06:18.189Z,35.65
2018-07-30T10:08:46.686Z,36.06
2018-07-30T10:11:15.331Z,36.63
2018-07-30T10:13:43.885Z,37.25
2018-07-30T10:16:12.429Z,37.79
2018-07-30T10:18:40.939Z,37.52
2018-07-30T10:21:09.567Z,38.35
2018-07-30T10:23:38.048Z,38.42
2018-07-30T10:26:07.199Z,38.51
2018-07-30T10:28:35.854Z,38.86
2018-07-30T10:31:04.410Z,38.21
2018-07-30T10:33:33.010Z,38.81
2018-07-30T10:36:01.598Z,38.43
2018-07-30T10:38:30.159Z,39.46
2018-07-30T10:40:58.915Z,39.16
2018-07-30T10:43:27.474Z,39.57
2018-07-30T10:45:56.046Z,39.89
2018-07-30T10:48:24.757Z,39.76
2018-07-30T10:50:53.226Z,39.76
2018-07-30T10:53:21.711Z,39.61
2018-07-30T10:55:50.329Z,40.48
2018-07-30T10:58:19.016Z,40.68
2018-07-30T11:00:47.601Z,41.19
2018-07-30T11:03:16.223Z,41.44
2018-07-30T11:05:44.847Z,41.18
2018-07-30T11:08:13.374Z,41.84
2018-07-30T11:10:41.910Z,41.98
2018-07-30T11:13:10.395Z,41.84
2018-07-30T11:15:38.934Z,42.72
2018-07-30T11:18:07.482Z,42.91
2018-07-30T11:20:36.199Z,43.20
2018-07-30T11:23:04.820Z,43.08
2018-07-30T11:25:33.583Z,42.38
2018-07-30T11:28:02.152Z,43.03
2018-07-30T11:30:30.802Z,43.80
2018-07-30T11:33:00.475Z,43.72
2018-07-30T11:35:28.950Z,44.34
2018-07-30T11:37:57.461Z,44.43
2018-07-30T11:40:26.134Z,43.72
2018-07-30T11:42:54.809Z,44.45
2018-07-30T11:45:23.377Z,44.34
2018-07-30T11:47:52.034Z,44.21
2018-07-30T11:50:20.647Z,44.35
2018-07-30T11:52:49.351Z,44.61
2018-07-30T11:55:18.003Z,44.33
2018-07-30T12:00:16.532Z,45.62
2018-07-30T12:02:45.347Z,45.88
2018-07-30T12:05:13.898Z,45.12
2018-07-30T12:07:42.379Z,45.92
2018-07-30T12:10:10.830Z,46.35
2018-07-30T12:12:39.350Z,47.05
2018-07-30T12:15:07.911Z,47.24
2018-07-30T12:17:36.483Z,45.93
2018-07-30T12:20:05.348Z,45.98
2018-07-30T12:22:34.125Z,45.57
2018-07-30T12:25:02.626Z,45.88
2018-07-30T12:27:31.207Z,45.83
2018-07-30T12:30:00.023Z,47.26
2018-07-30T12:32:28.541Z,47.68
2018-07-30T12:34:56.941Z,48.01
2018-07-30T12:37:25.545Z,46.86
2018-07-30T12:39:54.018Z,47.11
2018-07-30T12:42:22.533Z,47.04
2018-07-30T12:44:51.144Z,48.04
2018-07-30T12:47:19.629Z,48.61
2018-07-30T12:49:48.404Z,48.82
2018-07-30T12:52:16.930Z,49.05
2018-07-30T12:54:45.725Z,49.46
2018-07-30T12:57:14.294Z,48.95
2018-07-30T12:59:42.849Z,48.61
2018-07-30T13:02:11.428Z,50.15
2018-07-30T13:04:39.881Z,51.20
2018-07-30T13:07:08.563Z,50.36
2018-07-30T13:09:37.101Z,49.47
2018-07-30T13:12:05.817Z,49.71
2018-07-30T13:14:34.334Z,50.06
2018-07-30T13:17:02.813Z,49.39
2018-07-30T13:19:31.338Z,48.31
2018-07-30T13:22:00.038Z,50.05
2018-07-30T13:24:28.645Z,50.85
2018-07-30T13:26:57.154Z,51.97
2018-07-30T13:29:25.721Z,51.07
2018-07-30T13:31:54.210Z,52.02
2018-07-30T13:34:22.638Z,52.34
2018-07-30T13:36:51.154Z,50.38
2018-07-30T13:39:19.677Z,51.02
2018-07-30T13:41:48.352Z,51.31
2018-07-30T13:44:16.826Z,49.87
2018-07-30T13:46:45.370Z,49.13
2018-07-30T13:49:13.970Z,50.09
2018-07-30T13:51:42.383Z,50.44
2018-07-30T13:54:10.903Z,50.09
2018-07-30T13:56:39.569Z,51.22
2018-07-30T13:59:08.141Z,51.39
2018-07-30T14:01:36.853Z,50.95
2018-07-30T14:04:05.436Z,49.41
2018-07-30T14:06:34.100Z,50.70
2018-07-30T14:09:02.498Z,51.17
2018-07-30T14:11:31.077Z,51.61
2018-07-30T14:13:59.761Z,50.82
2018-07-30T14:16:28.465Z,50.65
2018-07-30T14:18:57.066Z,51.79
2018-07-30T14:21:25.577Z,51.87
2018-07-30T14:23:54.646Z,49.51
2018-07-30T14:26:23.189Z,49.11
2018-07-30T14:28:51.767Z,50.30
2018-07-30T14:31:20.351Z,51.67
2018-07-30T14:33:48.890Z,53.23
2018-07-30T14:36:17.436Z,52.58
2018-07-30T14:38:45.996Z,50.83
2018-07-30T14:41:14.847Z,50.92
2018-07-30T14:43:43.375Z,49.86
2018-07-30T14:46:11.879Z,50.02
2018-07-30T14:48:40.398Z,51.00
2018-07-30T14:51:08.933Z,51.89
2018-07-30T14:53:37.637Z,51.39
2018-07-30T14:56:06.413Z,51.90
2018-07-30T14:58:35.040Z,50.97
2018-07-30T15:01:03.527Z,51.89
2018-07-30T15:03:32.032Z,53.14
2018-07-30T15:06:00.773Z,51.54
2018-07-30T15:08:29.450Z,49.77
2018-07-30T15:10:57.989Z,49.78
2018-07-30T15:13:26.433Z,49.81
2018-07-30T15:15:54.964Z,48.31
2018-07-30T15:18:23.797Z,48.56
2018-07-30T15:20:52.362Z,47.72
2018-07-30T15:23:21.074Z,46.50
2018-07-30T15:25:49.661Z,47.61
2018-07-30T15:28:18.161Z,49.26
2018-07-30T15:30:46.650Z,50.42
2018-07-30T15:33:15.077Z,50.43
2018-07-30T15:35:43.678Z,51.16
2018-07-30T15:38:12.658Z,51.63
2018-07-30T15:40:41.291Z,49.81
2018-07-30T15:43:09.775Z,49.47
2018-07-30T15:45:40.760Z,49.38
2018-07-30T15:48:09.451Z,47.05
2018-07-30T15:50:38.086Z,44.81
2018-07-30T15:53:06.682Z,43.76
2018-07-30T15:55:35.134Z,43.77
2018-07-30T15:58:03.646Z,44.35
2018-07-30T16:00:32.112Z,44.28
2018-07-30T16:03:01.238Z,43.70
2018-07-30T16:05:29.817Z,45.17
2018-07-30T16:07:58.976Z,47.02
2018-07-30T16:10:27.658Z,44.71
2018-07-30T16:12:56.417Z,42.83
2018-07-30T16:15:24.936Z,41.76
2018-07-30T16:17:53.503Z,41.68
2018-07-30T16:20:22.266Z,40.91
2018-07-30T16:22:50.873Z,42.68
2018-07-30T16:25:19.373Z,46.77
2018-07-30T16:27:47.881Z,49.48
2018-07-30T16:30:16.364Z,50.65
2018-07-30T16:32:44.919Z,50.53
2018-07-30T16:35:13.557Z,50.53
2018-07-30T16:37:42.232Z,50.84
2018-07-30T16:40:10.906Z,50.47
2018-07-30T16:42:39.450Z,50.50
2018-07-30T16:45:09.018Z,48.21
2018-07-30T16:47:37.839Z,46.53
2018-07-30T16:50:07.694Z,43.74
2018-07-30T16:52:36.918Z,43.05
2018-07-30T16:55:06.242Z,43.12
2018-07-30T16:57:34.753Z,43.09
2018-07-30T17:00:03.367Z,43.73
2018-07-30T17:02:35.937Z,44.58
2018-07-30T17:05:04.834Z,42.74
2018-07-30T17:07:33.614Z,41.26
2018-07-30T17:10:02.127Z,39.84
2018-07-30T17:12:30.666Z,39.15
2018-07-30T17:14:59.382Z,38.58
2018-07-30T17:17:27.933Z,38.36
2018-07-30T17:19:56.587Z,38.45
2018-07-30T17:22:25.237Z,38.66
2018-07-30T17:24:53.814Z,38.72
2018-07-30T17:27:22.578Z,38.37
2018-07-30T17:29:51.130Z,37.98
2018-07-30T17:32:19.661Z,38.26
2018-07-30T17:34:48.131Z,39.41
2018-07-30T17:37:16.856Z,41.03
2018-07-30T17:39:45.475Z,41.91
2018-07-30T17:42:14.023Z,44.23
2018-07-30T17:44:44.342Z,44.41
2018-07-30T17:47:12.805Z,45.73
2018-07-30T17:49:41.343Z,45.26
2018-07-30T17:52:09.847Z,45.27
2018-07-30T17:54:38.357Z,44.54
2018-07-30T17:57:07.262Z,44.76
2018-07-30T17:59:35.920Z,44.42
2018-07-30T18:02:04.571Z,42.77
2018-07-30T18:04:33.030Z,40.63
2018-07-30T18:07:01.585Z,39.23
2018-07-30T18:09:30.039Z,38.35
2018-07-30T18:11:58.774Z,37.54
2018-07-30T18:14:27.347Z,36.72
2018-07-30T18:16:56.059Z,36.17
2018-07-30T18:19:24.582Z,35.81
2018-07-30T18:21:53.034Z,35.45
2018-07-30T18:24:21.585Z,34.97
2018-07-30T18:26:50.065Z,34.68
2018-07-30T18:29:18.631Z,34.38
2018-07-30T18:31:47.458Z,34.14
2018-07-30T18:34:16.010Z,33.93
2018-07-30T18:36:44.454Z,33.67
2018-07-30T18:39:13.009Z,33.46
2018-07-30T18:41:41.761Z,33.20
2018-07-30T18:44:10.357Z,33.03
2018-07-30T18:46:38.842Z,32.89
2018-07-30T18:49:07.421Z,32.80
2018-07-30T18:51:35.982Z,32.60
2018-07-30T18:54:04.482Z,32.39
2018-07-30T18:56:32.980Z,32.13
2018-07-30T18:59:01.534Z,31.82
2018-07-30T19:01:30.415Z,31.54
2018-07-30T19:03:58.981Z,31.27
2018-07-30T19:06:27.505Z,31.00
2018-07-30T19:08:56.046Z,30.76
2018-07-30T19:11:24.546Z,30.64
2018-07-30T19:13:53.123Z,30.48
2018-07-30T19:16:21.675Z,30.27
2018-07-30T19:18:50.618Z,30.12
2018-07-30T19:21:19.163Z,29.98
2018-07-30T19:23:47.666Z,29.82
2018-07-30T19:26:19.339Z,29.66
2018-07-30T19:28:47.807Z,29.50
2018-07-30T19:31:16.722Z,29.37
2018-07-30T19:33:45.238Z,29.21
2018-07-30T19:36:13.810Z,29.12
2018-07-30T19:38:42.438Z,28.93
2018-07-30T19:41:11.187Z,28.77
2018-07-30T19:43:39.794Z,28.68
2018-07-30T19:46:08.375Z,28.57
2018-07-30T19:48:36.906Z,28.43
2018-07-30T19:51:05.682Z,28.32
2018-07-30T19:53:34.115Z,28.22
2018-07-30T19:56:02.709Z,28.14
2018-07-30T19:58:31.386Z,28.11
2018-07-30T20:00:59.967Z,28.04
2018-07-30T20:03:28.611Z,27.95
2018-07-30T20:05:57.128Z,27.85
2018-07-30T20:08:25.787Z,27.74
2018-07-30T20:10:54.443Z,27.66
2018-07-30T20:13:22.946Z,27.59
2018-07-30T20:15:51.439Z,27.49
2018-07-30T20:18:19.870Z,27.41
2018-07-30T20:20:48.319Z,27.33
2018-07-30T20:23:16.966Z,27.25
2018-07-30T20:25:45.470Z,27.22
2018-07-30T20:28:14.020Z,27.15
2018-07-30T20:30:42.722Z,27.11
2018-07-30T20:33:11.246Z,27.01
2018-07-30T20:35:39.774Z,26.92
2018-07-30T20:38:08.430Z,26.83
2018-07-30T20:40:36.895Z,26.72
2018-07-30T20:43:05.564Z,26.62
2018-07-30T20:45:34.244Z,26.64
2018-07-30T20:48:02.774Z,26.65
2018-07-30T20:50:31.413Z,26.64
2018-07-30T20:53:00.412Z,26.62
2018-07-30T20:55:28.918Z,26.56
2018-07-30T20:57:57.521Z,26.42
2018-07-30T21:00:26.098Z,26.32
2018-07-30T21:02:54.742Z,26.19
2018-07-30T21:05:23.526Z,26.08
2018-07-30T21:07:52.014Z,25.99
2018-07-30T21:10:20.577Z,25.90
2018-07-30T21:12:49.104Z,25.83
2018-07-30T21:15:17.662Z,25.88
2018-07-30T21:17:46.137Z,25.82
2018-07-30T21:20:14.710Z,25.81
2018-07-30T21:22:43.321Z,25.77
2018-07-30T21:25:11.793Z,25.69
2018-07-30T21:27:40.302Z,25.68
2018-07-30T21:30:09.636Z,25.60
2018-07-30T21:32:38.254Z,25.53
2018-07-30T21:35:07.647Z,25.48
2018-07-30T21:37:36.405Z,25.42
2018-07-30T21:40:05.454Z,25.42
2018-07-30T21:42:33.921Z,25.42
2018-07-30T21:45:02.399Z,25.41
2018-07-30T21:47:30.936Z,25.38
2018-07-30T21:49:59.551Z,25.30
2018-07-30T21:52:28.167Z,25.21
2018-07-30T21:54:56.638Z,25.13
2018-07-30T21:57:25.329Z,25.06
2018-07-30T21:59:53.861Z,24.97
2018-07-30T22:02:22.373Z,24.95
2018-07-30T22:04:50.881Z,24.90
2018-07-30T22:07:19.339Z,24.88
2018-07-30T22:09:47.830Z,24.83
2018-07-30T22:12:16.356Z,24.78
2018-07-30T22:14:44.917Z,24.72
2018-07-30T22:17:13.480Z,24.64
2018-07-30T22:19:41.923Z,24.58
2018-07-30T22:22:10.460Z,24.53
2018-07-30T22:24:39.009Z,24.52
2018-07-30T22:27:07.539Z,24.52
2018-07-30T22:29:35.998Z,24.44
2018-07-30T22:32:04.489Z,24.34
2018-07-30T22:34:32.946Z,24.25
2018-07-30T22:37:01.747Z,24.18
2018-07-30T22:39:30.223Z,24.13
2018-07-30T22:41:58.750Z,24.12
2018-07-30T22:44:27.277Z,24.09
2018-07-30T22:46:55.815Z,24.04
2018-07-30T22:49:24.358Z,23.95
2018-07-30T22:51:52.838Z,23.94
2018-07-30T22:54:21.314Z,23.87
2018-07-30T22:56:49.800Z,23.79
2018-07-30T22:59:18.446Z,23.70
2018-07-30T23:01:46.935Z,23.64
2018-07-30T23:04:15.458Z,23.60
2018-07-30T23:06:43.921Z,23.55
2018-07-30T23:09:12.405Z,23.50
2018-07-30T23:11:40.889Z,23.48
2018-07-30T23:14:09.422Z,23.41
2018-07-30T23:16:37.942Z,23.39
2018-07-30T23:19:06.452Z,23.37
2018-07-30T23:21:35.097Z,23.34
2018-07-30T23:24:04.603Z,23.30
2018-07-30T23:26:33.268Z,23.25
2018-07-30T23:29:01.837Z,23.16
2018-07-30T23:31:31.367Z,23.11
2018-07-30T23:34:00.250Z,23.06
2018-07-30T23:36:28.890Z,23.02
2018-07-30T23:38:57.343Z,22.96
2018-07-30T23:41:25.898Z,22.93
2018-07-30T23:43:54.414Z,22.94
2018-07-30T23:46:22.938Z,22.95
2018-07-30T23:48:51.614Z,22.90
2018-07-30T23:51:20.126Z,22.87
2018-07-30T23:53:48.870Z,22.79
2018-07-30T23:56:17.446Z,22.73
2018-07-30T23:58:45.925Z,22.65
